sensor_id;sensor_type;location;lat;lon;timestamp;P1;durP1;ratioP1;P2;durP2;ratioP2
54993;SDS011;40891;47.242;8.648;2023-02-11T00:03:51;15.60;;;7.10;;
54993;SDS011;40891;47.242;8.648;2023-02-11T00:06:16;16.43;;;7.33;;
54993;SDS011;40891;47.242;8.648;2023-02-11T00:08:42;14.13;;;7.00;;
54993;SDS011;40891;47.242;8.648;2023-02-11T00:11:09;17.63;;;7.83;;
54993;SDS011;40891;47.242;8.648;2023-02-11T00:13:37;17.47;;;7.20;;
54993;SDS011;40891;47.242;8.648;2023-02-11T00:16:06;13.97;;;7.10;;
54993;SDS011;40891;47.242;8.648;2023-02-11T00:18:33;14.90;;;7.77;;
54993;SDS011;40891;47.242;8.648;2023-02-11T00:21:04;15.50;;;7.20;;
54993;SDS011;40891;47.242;8.648;2023-02-11T00:23:30;16.97;;;7.83;;
54993;SDS011;40891;47.242;8.648;2023-02-11T00:25:55;15.03;;;7.00;;
54993;SDS011;40891;47.242;8.648;2023-02-11T00:28:21;14.10;;;7.33;;
54993;SDS011;40891;47.242;8.648;2023-02-11T00:30:52;13.37;;;7.90;;
54993;SDS011;40891;47.242;8.648;2023-02-11T00:33:18;17.37;;;7.80;;
54993;SDS011;40891;47.242;8.648;2023-02-11T00:35:44;13.60;;;7.17;;
54993;SDS011;40891;47.242;8.648;2023-02-11T00:38:09;15.17;;;7.17;;
54993;SDS011;40891;47.242;8.648;2023-02-11T00:40:34;14.27;;;6.87;;
54993;SDS011;40891;47.242;8.648;2023-02-11T00:42:59;16.00;;;7.37;;
54993;SDS011;40891;47.242;8.648;2023-02-11T00:45:25;17.83;;;8.17;;
54993;SDS011;40891;47.242;8.648;2023-02-11T00:47:50;18.77;;;7.50;;
54993;SDS011;40891;47.242;8.648;2023-02-11T00:50:15;16.30;;;7.97;;
54993;SDS011;40891;47.242;8.648;2023-02-11T00:52:41;17.37;;;8.33;;
54993;SDS011;40891;47.242;8.648;2023-02-11T00:55:06;15.80;;;7.47;;
54993;SDS011;40891;47.242;8.648;2023-02-11T00:57:32;16.10;;;7.40;;
54993;SDS011;40891;47.242;8.648;2023-02-11T00:59:57;19.87;;;8.00;;
54993;SDS011;40891;47.242;8.648;2023-02-11T01:02:23;15.67;;;7.87;;
54993;SDS011;40891;47.242;8.648;2023-02-11T01:04:48;15.40;;;7.70;;
54993;SDS011;40891;47.242;8.648;2023-02-11T01:07:13;19.13;;;8.67;;
54993;SDS011;40891;47.242;8.648;2023-02-11T01:09:39;17.93;;;8.13;;
54993;SDS011;40891;47.242;8.648;2023-02-11T01:12:04;16.90;;;8.00;;
54993;SDS011;40891;47.242;8.648;2023-02-11T01:14:30;19.67;;;7.93;;
54993;SDS011;40891;47.242;8.648;2023-02-11T01:16:55;17.83;;;7.80;;
54993;SDS011;40891;47.242;8.648;2023-02-11T01:19:20;15.93;;;7.70;;
54993;SDS011;40891;47.242;8.648;2023-02-11T01:21:46;15.27;;;8.43;;
54993;SDS011;40891;47.242;8.648;2023-02-11T01:24:11;14.93;;;7.43;;
54993;SDS011;40891;47.242;8.648;2023-02-11T01:26:36;23.13;;;7.77;;
54993;SDS011;40891;47.242;8.648;2023-02-11T01:29:02;17.60;;;7.73;;
54993;SDS011;40891;47.242;8.648;2023-02-11T01:31:29;16.00;;;7.50;;
54993;SDS011;40891;47.242;8.648;2023-02-11T01:33:54;17.53;;;7.83;;
54993;SDS011;40891;47.242;8.648;2023-02-11T01:36:20;14.93;;;7.20;;
54993;SDS011;40891;47.242;8.648;2023-02-11T01:38:45;15.60;;;7.17;;
54993;SDS011;40891;47.242;8.648;2023-02-11T01:41:11;17.33;;;7.67;;
54993;SDS011;40891;47.242;8.648;2023-02-11T01:43:40;18.23;;;7.57;;
54993;SDS011;40891;47.242;8.648;2023-02-11T01:46:22;16.53;;;7.70;;
54993;SDS011;40891;47.242;8.648;2023-02-11T01:51:40;15.17;;;7.70;;
54993;SDS011;40891;47.242;8.648;2023-02-11T01:54:11;13.70;;;7.23;;
54993;SDS011;40891;47.242;8.648;2023-02-11T01:56:59;15.00;;;7.13;;
54993;SDS011;40891;47.242;8.648;2023-02-11T02:02:14;12.27;;;6.43;;
54993;SDS011;40891;47.242;8.648;2023-02-11T02:04:54;15.30;;;7.10;;
54993;SDS011;40891;47.242;8.648;2023-02-11T02:07:32;14.47;;;7.17;;
54993;SDS011;40891;47.242;8.648;2023-02-11T02:10:05;15.47;;;7.90;;
54993;SDS011;40891;47.242;8.648;2023-02-11T02:12:35;15.37;;;7.30;;
54993;SDS011;40891;47.242;8.648;2023-02-11T02:17:56;13.80;;;6.70;;
54993;SDS011;40891;47.242;8.648;2023-02-11T02:20:30;15.57;;;7.13;;
54993;SDS011;40891;47.242;8.648;2023-02-11T02:26:26;15.23;;;7.53;;
54993;SDS011;40891;47.242;8.648;2023-02-11T02:40:43;11.93;;;6.00;;
54993;SDS011;40891;47.242;8.648;2023-02-11T02:43:13;14.37;;;7.03;;
54993;SDS011;40891;47.242;8.648;2023-02-11T02:45:39;12.70;;;6.67;;
54993;SDS011;40891;47.242;8.648;2023-02-11T02:48:05;12.30;;;6.23;;
54993;SDS011;40891;47.242;8.648;2023-02-11T02:50:32;11.83;;;6.27;;
54993;SDS011;40891;47.242;8.648;2023-02-11T02:56:09;12.27;;;6.10;;
54993;SDS011;40891;47.242;8.648;2023-02-11T02:59:05;9.87;;;5.77;;
54993;SDS011;40891;47.242;8.648;2023-02-11T03:01:49;8.57;;;4.80;;
54993;SDS011;40891;47.242;8.648;2023-02-11T03:07:11;11.03;;;5.97;;
54993;SDS011;40891;47.242;8.648;2023-02-11T03:09:52;11.33;;;5.27;;
54993;SDS011;40891;47.242;8.648;2023-02-11T03:12:26;14.27;;;6.13;;
54993;SDS011;40891;47.242;8.648;2023-02-11T03:14:56;10.50;;;5.50;;
54993;SDS011;40891;47.242;8.648;2023-02-11T03:17:25;11.60;;;6.27;;
54993;SDS011;40891;47.242;8.648;2023-02-11T03:19:53;12.47;;;6.07;;
54993;SDS011;40891;47.242;8.648;2023-02-11T03:22:37;11.93;;;5.47;;
54993;SDS011;40891;47.242;8.648;2023-02-11T03:25:06;12.77;;;6.17;;
54993;SDS011;40891;47.242;8.648;2023-02-11T03:27:45;12.17;;;6.10;;
54993;SDS011;40891;47.242;8.648;2023-02-11T03:30:25;10.47;;;6.07;;
54993;SDS011;40891;47.242;8.648;2023-02-11T03:32:55;11.90;;;6.20;;
54993;SDS011;40891;47.242;8.648;2023-02-11T03:35:31;12.17;;;6.73;;
54993;SDS011;40891;47.242;8.648;2023-02-11T03:38:04;13.20;;;6.77;;
54993;SDS011;40891;47.242;8.648;2023-02-11T03:40:36;12.83;;;6.63;;
54993;SDS011;40891;47.242;8.648;2023-02-11T03:43:05;18.30;;;7.23;;
54993;SDS011;40891;47.242;8.648;2023-02-11T03:45:35;15.23;;;6.73;;
54993;SDS011;40891;47.242;8.648;2023-02-11T03:48:13;13.50;;;6.83;;
54993;SDS011;40891;47.242;8.648;2023-02-11T03:50:44;13.87;;;7.53;;
54993;SDS011;40891;47.242;8.648;2023-02-11T03:53:12;13.93;;;7.43;;
54993;SDS011;40891;47.242;8.648;2023-02-11T03:55:39;15.40;;;7.50;;
54993;SDS011;40891;47.242;8.648;2023-02-11T03:58:07;14.87;;;7.07;;
54993;SDS011;40891;47.242;8.648;2023-02-11T04:00:33;15.13;;;7.33;;
54993;SDS011;40891;47.242;8.648;2023-02-11T04:03:01;15.73;;;7.83;;
54993;SDS011;40891;47.242;8.648;2023-02-11T04:05:27;16.63;;;7.17;;
54993;SDS011;40891;47.242;8.648;2023-02-11T04:07:52;16.60;;;7.73;;
54993;SDS011;40891;47.242;8.648;2023-02-11T04:10:17;12.90;;;6.70;;
54993;SDS011;40891;47.242;8.648;2023-02-11T04:12:43;17.43;;;8.40;;
54993;SDS011;40891;47.242;8.648;2023-02-11T04:15:08;14.83;;;7.37;;
54993;SDS011;40891;47.242;8.648;2023-02-11T04:17:34;13.07;;;7.23;;
54993;SDS011;40891;47.242;8.648;2023-02-11T04:19:59;16.27;;;8.20;;
54993;SDS011;40891;47.242;8.648;2023-02-11T04:22:24;20.57;;;8.50;;
54993;SDS011;40891;47.242;8.648;2023-02-11T04:24:50;18.50;;;8.43;;
54993;SDS011;40891;47.242;8.648;2023-02-11T04:27:15;15.17;;;8.10;;
54993;SDS011;40891;47.242;8.648;2023-02-11T04:29:41;21.17;;;8.63;;
54993;SDS011;40891;47.242;8.648;2023-02-11T04:32:06;16.07;;;8.00;;
54993;SDS011;40891;47.242;8.648;2023-02-11T04:34:31;16.00;;;7.60;;
54993;SDS011;40891;47.242;8.648;2023-02-11T04:36:57;13.57;;;7.10;;
54993;SDS011;40891;47.242;8.648;2023-02-11T04:39:22;15.40;;;7.73;;
54993;SDS011;40891;47.242;8.648;2023-02-11T04:41:47;17.00;;;7.80;;
54993;SDS011;40891;47.242;8.648;2023-02-11T04:44:13;14.93;;;7.57;;
54993;SDS011;40891;47.242;8.648;2023-02-11T04:46:38;15.97;;;7.43;;
54993;SDS011;40891;47.242;8.648;2023-02-11T04:49:03;15.47;;;7.87;;
54993;SDS011;40891;47.242;8.648;2023-02-11T04:51:29;15.73;;;8.07;;
54993;SDS011;40891;47.242;8.648;2023-02-11T04:53:55;15.80;;;7.90;;
54993;SDS011;40891;47.242;8.648;2023-02-11T04:56:20;20.97;;;8.83;;
54993;SDS011;40891;47.242;8.648;2023-02-11T04:58:46;23.43;;;9.20;;
54993;SDS011;40891;47.242;8.648;2023-02-11T05:01:12;16.73;;;8.77;;
54993;SDS011;40891;47.242;8.648;2023-02-11T05:03:39;18.73;;;8.20;;
54993;SDS011;40891;47.242;8.648;2023-02-11T05:06:05;17.93;;;9.27;;
54993;SDS011;40891;47.242;8.648;2023-02-11T05:08:31;18.43;;;9.20;;
54993;SDS011;40891;47.242;8.648;2023-02-11T05:10:57;17.63;;;8.80;;
54993;SDS011;40891;47.242;8.648;2023-02-11T05:13:23;19.70;;;9.43;;
54993;SDS011;40891;47.242;8.648;2023-02-11T05:15:48;19.90;;;9.47;;
54993;SDS011;40891;47.242;8.648;2023-02-11T05:18:13;17.93;;;8.97;;
54993;SDS011;40891;47.242;8.648;2023-02-11T05:20:40;16.97;;;9.20;;
54993;SDS011;40891;47.242;8.648;2023-02-11T05:23:06;19.63;;;9.03;;
54993;SDS011;40891;47.242;8.648;2023-02-11T05:25:31;19.73;;;8.67;;
54993;SDS011;40891;47.242;8.648;2023-02-11T05:27:56;21.13;;;10.23;;
54993;SDS011;40891;47.242;8.648;2023-02-11T05:30:22;19.33;;;8.67;;
54993;SDS011;40891;47.242;8.648;2023-02-11T05:32:47;20.70;;;8.87;;
54993;SDS011;40891;47.242;8.648;2023-02-11T05:35:13;18.00;;;8.43;;
54993;SDS011;40891;47.242;8.648;2023-02-11T05:37:38;16.93;;;8.47;;
54993;SDS011;40891;47.242;8.648;2023-02-11T05:40:04;17.97;;;8.63;;
54993;SDS011;40891;47.242;8.648;2023-02-11T05:42:30;18.10;;;8.77;;
54993;SDS011;40891;47.242;8.648;2023-02-11T05:44:55;19.50;;;8.77;;
54993;SDS011;40891;47.242;8.648;2023-02-11T05:47:20;18.97;;;8.97;;
54993;SDS011;40891;47.242;8.648;2023-02-11T05:49:46;20.17;;;8.90;;
54993;SDS011;40891;47.242;8.648;2023-02-11T05:52:11;16.50;;;9.03;;
54993;SDS011;40891;47.242;8.648;2023-02-11T05:54:36;18.73;;;9.77;;
54993;SDS011;40891;47.242;8.648;2023-02-11T05:57:02;20.57;;;9.43;;
54993;SDS011;40891;47.242;8.648;2023-02-11T05:59:27;17.03;;;9.10;;
54993;SDS011;40891;47.242;8.648;2023-02-11T06:01:53;18.33;;;8.90;;
54993;SDS011;40891;47.242;8.648;2023-02-11T06:04:18;17.97;;;9.33;;
54993;SDS011;40891;47.242;8.648;2023-02-11T06:06:43;18.83;;;9.13;;
54993;SDS011;40891;47.242;8.648;2023-02-11T06:09:09;17.73;;;9.13;;
54993;SDS011;40891;47.242;8.648;2023-02-11T06:11:35;18.13;;;9.50;;
54993;SDS011;40891;47.242;8.648;2023-02-11T06:14:00;21.67;;;10.17;;
54993;SDS011;40891;47.242;8.648;2023-02-11T06:16:26;23.87;;;9.93;;
54993;SDS011;40891;47.242;8.648;2023-02-11T06:18:51;21.90;;;11.00;;
54993;SDS011;40891;47.242;8.648;2023-02-11T06:21:16;22.40;;;11.30;;
54993;SDS011;40891;47.242;8.648;2023-02-11T06:23:42;22.60;;;10.70;;
54993;SDS011;40891;47.242;8.648;2023-02-11T06:26:08;19.40;;;10.07;;
54993;SDS011;40891;47.242;8.648;2023-02-11T06:28:41;26.07;;;12.07;;
54993;SDS011;40891;47.242;8.648;2023-02-11T06:31:07;25.40;;;12.37;;
54993;SDS011;40891;47.242;8.648;2023-02-11T06:33:33;27.97;;;12.47;;
54993;SDS011;40891;47.242;8.648;2023-02-11T06:35:59;28.20;;;13.00;;
54993;SDS011;40891;47.242;8.648;2023-02-11T06:38:25;24.43;;;11.90;;
54993;SDS011;40891;47.242;8.648;2023-02-11T06:40:50;22.53;;;11.30;;
54993;SDS011;40891;47.242;8.648;2023-02-11T06:43:16;23.93;;;11.23;;
54993;SDS011;40891;47.242;8.648;2023-02-11T06:45:41;24.10;;;11.80;;
54993;SDS011;40891;47.242;8.648;2023-02-11T06:48:07;21.83;;;10.70;;
54993;SDS011;40891;47.242;8.648;2023-02-11T06:50:33;26.47;;;11.20;;
54993;SDS011;40891;47.242;8.648;2023-02-11T06:52:58;21.93;;;11.23;;
54993;SDS011;40891;47.242;8.648;2023-02-11T06:55:24;25.40;;;11.60;;
54993;SDS011;40891;47.242;8.648;2023-02-11T06:57:50;27.23;;;12.87;;
54993;SDS011;40891;47.242;8.648;2023-02-11T07:00:15;27.13;;;11.40;;
54993;SDS011;40891;47.242;8.648;2023-02-11T07:02:41;24.70;;;11.97;;
54993;SDS011;40891;47.242;8.648;2023-02-11T07:05:06;21.70;;;11.67;;
54993;SDS011;40891;47.242;8.648;2023-02-11T07:07:32;21.33;;;11.87;;
54993;SDS011;40891;47.242;8.648;2023-02-11T07:09:58;27.10;;;12.30;;
54993;SDS011;40891;47.242;8.648;2023-02-11T07:12:23;27.10;;;12.80;;
54993;SDS011;40891;47.242;8.648;2023-02-11T07:14:48;23.03;;;12.47;;
54993;SDS011;40891;47.242;8.648;2023-02-11T07:17:13;26.27;;;12.37;;
54993;SDS011;40891;47.242;8.648;2023-02-11T07:19:39;24.70;;;12.73;;
54993;SDS011;40891;47.242;8.648;2023-02-11T07:22:04;24.87;;;13.23;;
54993;SDS011;40891;47.242;8.648;2023-02-11T07:24:30;26.10;;;13.07;;
54993;SDS011;40891;47.242;8.648;2023-02-11T07:26:55;25.07;;;12.17;;
54993;SDS011;40891;47.242;8.648;2023-02-11T07:29:20;24.57;;;11.30;;
54993;SDS011;40891;47.242;8.648;2023-02-11T07:31:46;21.23;;;11.03;;
54993;SDS011;40891;47.242;8.648;2023-02-11T07:34:11;20.93;;;11.53;;
54993;SDS011;40891;47.242;8.648;2023-02-11T07:36:36;21.87;;;10.37;;
54993;SDS011;40891;47.242;8.648;2023-02-11T07:39:02;18.93;;;10.80;;
54993;SDS011;40891;47.242;8.648;2023-02-11T07:41:27;22.03;;;9.80;;
54993;SDS011;40891;47.242;8.648;2023-02-11T07:43:53;20.13;;;10.63;;
54993;SDS011;40891;47.242;8.648;2023-02-11T07:46:23;17.53;;;9.23;;
54993;SDS011;40891;47.242;8.648;2023-02-11T07:48:50;19.13;;;10.63;;
54993;SDS011;40891;47.242;8.648;2023-02-11T07:51:17;16.37;;;9.43;;
54993;SDS011;40891;47.242;8.648;2023-02-11T07:53:45;20.87;;;10.90;;
54993;SDS011;40891;47.242;8.648;2023-02-11T07:56:12;24.53;;;12.57;;
54993;SDS011;40891;47.242;8.648;2023-02-11T07:58:39;22.97;;;11.83;;
54993;SDS011;40891;47.242;8.648;2023-02-11T08:01:09;18.20;;;10.13;;
54993;SDS011;40891;47.242;8.648;2023-02-11T08:03:36;17.40;;;10.20;;
54993;SDS011;40891;47.242;8.648;2023-02-11T08:06:06;18.83;;;9.90;;
54993;SDS011;40891;47.242;8.648;2023-02-11T08:08:33;18.77;;;10.00;;
54993;SDS011;40891;47.242;8.648;2023-02-11T08:11:04;16.33;;;9.80;;
54993;SDS011;40891;47.242;8.648;2023-02-11T08:13:30;19.13;;;10.20;;
54993;SDS011;40891;47.242;8.648;2023-02-11T08:15:56;18.60;;;10.27;;
54993;SDS011;40891;47.242;8.648;2023-02-11T08:18:21;18.40;;;9.83;;
54993;SDS011;40891;47.242;8.648;2023-02-11T08:20:47;17.20;;;10.47;;
54993;SDS011;40891;47.242;8.648;2023-02-11T08:23:12;19.40;;;10.50;;
54993;SDS011;40891;47.242;8.648;2023-02-11T08:25:37;17.37;;;9.00;;
54993;SDS011;40891;47.242;8.648;2023-02-11T08:28:02;18.67;;;9.73;;
54993;SDS011;40891;47.242;8.648;2023-02-11T08:30:28;13.97;;;8.40;;
54993;SDS011;40891;47.242;8.648;2023-02-11T08:32:53;13.00;;;7.53;;
54993;SDS011;40891;47.242;8.648;2023-02-11T08:35:18;12.50;;;6.87;;
54993;SDS011;40891;47.242;8.648;2023-02-11T08:37:44;14.57;;;8.37;;
54993;SDS011;40891;47.242;8.648;2023-02-11T08:40:09;13.13;;;7.97;;
54993;SDS011;40891;47.242;8.648;2023-02-11T08:42:35;13.10;;;7.27;;
54993;SDS011;40891;47.242;8.648;2023-02-11T08:45:00;10.97;;;5.80;;
54993;SDS011;40891;47.242;8.648;2023-02-11T08:47:25;8.77;;;6.00;;
54993;SDS011;40891;47.242;8.648;2023-02-11T08:49:51;8.27;;;5.83;;
54993;SDS011;40891;47.242;8.648;2023-02-11T08:52:16;10.33;;;6.57;;
54993;SDS011;40891;47.242;8.648;2023-02-11T08:54:41;13.67;;;7.83;;
54993;SDS011;40891;47.242;8.648;2023-02-11T08:57:07;11.13;;;7.57;;
54993;SDS011;40891;47.242;8.648;2023-02-11T08:59:32;15.10;;;8.53;;
54993;SDS011;40891;47.242;8.648;2023-02-11T09:01:58;12.63;;;8.68;;
54993;SDS011;40891;47.242;8.648;2023-02-11T09:04:23;12.43;;;9.20;;
54993;SDS011;40891;47.242;8.648;2023-02-11T09:06:49;16.25;;;9.20;;
54993;SDS011;40891;47.242;8.648;2023-02-11T09:09:14;13.30;;;9.13;;
54993;SDS011;40891;47.242;8.648;2023-02-11T09:11:41;13.93;;;9.80;;
54993;SDS011;40891;47.242;8.648;2023-02-11T09:14:10;12.98;;;9.90;;
54993;SDS011;40891;47.242;8.648;2023-02-11T09:16:41;16.10;;;10.63;;
54993;SDS011;40891;47.242;8.648;2023-02-11T09:19:08;16.80;;;11.40;;
54993;SDS011;40891;47.242;8.648;2023-02-11T09:21:34;15.50;;;10.33;;
54993;SDS011;40891;47.242;8.648;2023-02-11T09:24:00;14.77;;;10.40;;
54993;SDS011;40891;47.242;8.648;2023-02-11T09:26:26;16.10;;;9.83;;
54993;SDS011;40891;47.242;8.648;2023-02-11T09:28:53;18.37;;;9.70;;
54993;SDS011;40891;47.242;8.648;2023-02-11T09:31:20;14.07;;;8.10;;
54993;SDS011;40891;47.242;8.648;2023-02-11T09:33:48;11.93;;;7.80;;
54993;SDS011;40891;47.242;8.648;2023-02-11T09:36:16;11.70;;;7.30;;
54993;SDS011;40891;47.242;8.648;2023-02-11T09:38:43;14.83;;;8.20;;
54993;SDS011;40891;47.242;8.648;2023-02-11T09:41:16;12.53;;;7.87;;
54993;SDS011;40891;47.242;8.648;2023-02-11T09:43:57;11.63;;;7.07;;
54993;SDS011;40891;47.242;8.648;2023-02-11T09:46:26;12.47;;;7.60;;
54993;SDS011;40891;47.242;8.648;2023-02-11T09:48:57;12.33;;;7.50;;
54993;SDS011;40891;47.242;8.648;2023-02-11T09:51:31;12.77;;;7.47;;
54993;SDS011;40891;47.242;8.648;2023-02-11T09:54:50;11.00;;;6.90;;
54993;SDS011;40891;47.242;8.648;2023-02-11T09:57:18;10.83;;;7.27;;
54993;SDS011;40891;47.242;8.648;2023-02-11T09:59:43;10.83;;;7.73;;
54993;SDS011;40891;47.242;8.648;2023-02-11T10:02:12;11.13;;;7.40;;
54993;SDS011;40891;47.242;8.648;2023-02-11T10:08:12;12.55;;;8.45;;
54993;SDS011;40891;47.242;8.648;2023-02-11T10:10:49;12.05;;;8.07;;
54993;SDS011;40891;47.242;8.648;2023-02-11T10:13:21;11.00;;;7.60;;
54993;SDS011;40891;47.242;8.648;2023-02-11T10:18:45;20.42;;;14.60;;
54993;SDS011;40891;47.242;8.648;2023-02-11T10:24:30;21.63;;;15.90;;
54993;SDS011;40891;47.242;8.648;2023-02-11T10:26:56;11.48;;;9.35;;
54993;SDS011;40891;47.242;8.648;2023-02-11T10:29:25;13.05;;;8.95;;
54993;SDS011;40891;47.242;8.648;2023-02-11T10:31:59;13.73;;;10.15;;
54993;SDS011;40891;47.242;8.648;2023-02-11T10:34:29;12.55;;;9.60;;
54993;SDS011;40891;47.242;8.648;2023-02-11T10:36:54;11.95;;;8.13;;
54993;SDS011;40891;47.242;8.648;2023-02-11T10:39:21;11.93;;;8.30;;
54993;SDS011;40891;47.242;8.648;2023-02-11T10:42:08;9.75;;;7.47;;
54993;SDS011;40891;47.242;8.648;2023-02-11T10:44:41;10.15;;;7.93;;
54993;SDS011;40891;47.242;8.648;2023-02-11T10:47:16;9.80;;;6.75;;
54993;SDS011;40891;47.242;8.648;2023-02-11T10:49:46;12.40;;;7.60;;
54993;SDS011;40891;47.242;8.648;2023-02-11T10:57:42;11.67;;;6.60;;
54993;SDS011;40891;47.242;8.648;2023-02-11T11:02:42;11.60;;;7.43;;
54993;SDS011;40891;47.242;8.648;2023-02-11T11:05:18;12.80;;;7.60;;
54993;SDS011;40891;47.242;8.648;2023-02-11T11:08:06;12.07;;;8.20;;
54993;SDS011;40891;47.242;8.648;2023-02-11T11:10:35;13.30;;;8.40;;
54993;SDS011;40891;47.242;8.648;2023-02-11T11:13:00;13.90;;;8.53;;
54993;SDS011;40891;47.242;8.648;2023-02-11T11:15:27;13.57;;;8.93;;
54993;SDS011;40891;47.242;8.648;2023-02-11T11:20:59;12.80;;;8.57;;
54993;SDS011;40891;47.242;8.648;2023-02-11T11:23:27;12.13;;;8.17;;
54993;SDS011;40891;47.242;8.648;2023-02-11T11:26:08;10.03;;;7.30;;
54993;SDS011;40891;47.242;8.648;2023-02-11T11:28:37;9.73;;;7.43;;
54993;SDS011;40891;47.242;8.648;2023-02-11T11:31:15;13.13;;;7.40;;
54993;SDS011;40891;47.242;8.648;2023-02-11T11:33:44;12.85;;;8.02;;
54993;SDS011;40891;47.242;8.648;2023-02-11T11:36:12;11.30;;;7.80;;
54993;SDS011;40891;47.242;8.648;2023-02-11T11:38:54;11.20;;;7.70;;
54993;SDS011;40891;47.242;8.648;2023-02-11T11:41:26;9.40;;;7.22;;
54993;SDS011;40891;47.242;8.648;2023-02-11T11:47:12;11.10;;;7.65;;
54993;SDS011;40891;47.242;8.648;2023-02-11T11:55:30;8.48;;;6.70;;
54993;SDS011;40891;47.242;8.648;2023-02-11T11:58:11;10.32;;;7.13;;
54993;SDS011;40891;47.242;8.648;2023-02-11T12:00:43;8.82;;;6.90;;
54993;SDS011;40891;47.242;8.648;2023-02-11T12:08:41;9.85;;;7.68;;
54993;SDS011;40891;47.242;8.648;2023-02-11T12:13:59;7.93;;;6.95;;
54993;SDS011;40891;47.242;8.648;2023-02-11T12:16:34;9.88;;;8.15;;
54993;SDS011;40891;47.242;8.648;2023-02-11T12:19:29;9.82;;;7.63;;
54993;SDS011;40891;47.242;8.648;2023-02-11T12:27:11;8.45;;;7.55;;
54993;SDS011;40891;47.242;8.648;2023-02-11T12:30:15;8.75;;;7.00;;
54993;SDS011;40891;47.242;8.648;2023-02-11T12:35:31;7.88;;;6.50;;
54993;SDS011;40891;47.242;8.648;2023-02-11T12:44:15;8.05;;;5.55;;
54993;SDS011;40891;47.242;8.648;2023-02-11T12:47:20;5.60;;;5.10;;
54993;SDS011;40891;47.242;8.648;2023-02-11T12:49:55;6.88;;;6.18;;
54993;SDS011;40891;47.242;8.648;2023-02-11T12:52:28;7.07;;;5.57;;
54993;SDS011;40891;47.242;8.648;2023-02-11T12:55:16;6.78;;;6.03;;
54993;SDS011;40891;47.242;8.648;2023-02-11T12:57:45;7.35;;;6.38;;
54993;SDS011;40891;47.242;8.648;2023-02-11T13:00:18;9.50;;;6.82;;
54993;SDS011;40891;47.242;8.648;2023-02-11T13:02:55;7.90;;;6.72;;
54993;SDS011;40891;47.242;8.648;2023-02-11T13:05:45;7.90;;;7.13;;
54993;SDS011;40891;47.242;8.648;2023-02-11T13:08:42;9.05;;;7.38;;
54993;SDS011;40891;47.242;8.648;2023-02-11T13:11:15;8.07;;;6.05;;
54993;SDS011;40891;47.242;8.648;2023-02-11T13:16:16;8.70;;;6.00;;
54993;SDS011;40891;47.242;8.648;2023-02-11T13:18:51;7.18;;;6.47;;
54993;SDS011;40891;47.242;8.648;2023-02-11T13:21:28;6.43;;;5.75;;
54993;SDS011;40891;47.242;8.648;2023-02-11T13:24:07;7.10;;;5.80;;
54993;SDS011;40891;47.242;8.648;2023-02-11T13:26:44;8.00;;;5.60;;
54993;SDS011;40891;47.242;8.648;2023-02-11T13:32:04;8.68;;;6.57;;
54993;SDS011;40891;47.242;8.648;2023-02-11T13:37:05;7.53;;;6.18;;
54993;SDS011;40891;47.242;8.648;2023-02-11T13:39:54;6.15;;;5.55;;
54993;SDS011;40891;47.242;8.648;2023-02-11T13:42:20;6.72;;;6.00;;
54993;SDS011;40891;47.242;8.648;2023-02-11T13:44:46;8.18;;;6.30;;
54993;SDS011;40891;47.242;8.648;2023-02-11T13:47:21;7.72;;;6.35;;
54993;SDS011;40891;47.242;8.648;2023-02-11T13:49:55;7.65;;;6.57;;
54993;SDS011;40891;47.242;8.648;2023-02-11T13:52:26;7.57;;;6.47;;
54993;SDS011;40891;47.242;8.648;2023-02-11T13:54:56;7.00;;;5.93;;
54993;SDS011;40891;47.242;8.648;2023-02-11T13:57:45;7.53;;;5.80;;
54993;SDS011;40891;47.242;8.648;2023-02-11T14:19:36;7.22;;;5.28;;
54993;SDS011;40891;47.242;8.648;2023-02-11T14:22:04;6.85;;;5.57;;
54993;SDS011;40891;47.242;8.648;2023-02-11T14:27:04;6.05;;;5.30;;
54993;SDS011;40891;47.242;8.648;2023-02-11T14:29:52;8.23;;;5.30;;
54993;SDS011;40891;47.242;8.648;2023-02-11T14:41:19;7.75;;;5.63;;
54993;SDS011;40891;47.242;8.648;2023-02-11T14:43:52;8.63;;;5.07;;
54993;SDS011;40891;47.242;8.648;2023-02-11T14:46:21;6.97;;;5.30;;
54993;SDS011;40891;47.242;8.648;2023-02-11T14:48:49;8.60;;;5.03;;
54993;SDS011;40891;47.242;8.648;2023-02-11T14:51:18;6.55;;;4.88;;
54993;SDS011;40891;47.242;8.648;2023-02-11T14:53:51;7.13;;;5.25;;
54993;SDS011;40891;47.242;8.648;2023-02-11T14:56:23;7.50;;;5.32;;
54993;SDS011;40891;47.242;8.648;2023-02-11T14:58:52;6.07;;;5.05;;
54993;SDS011;40891;47.242;8.648;2023-02-11T15:04:04;5.93;;;4.88;;
54993;SDS011;40891;47.242;8.648;2023-02-11T15:06:45;6.53;;;5.03;;
54993;SDS011;40891;47.242;8.648;2023-02-11T15:09:18;7.30;;;5.43;;
54993;SDS011;40891;47.242;8.648;2023-02-11T15:11:48;5.57;;;5.00;;
54993;SDS011;40891;47.242;8.648;2023-02-11T15:14:23;7.72;;;5.22;;
54993;SDS011;40891;47.242;8.648;2023-02-11T15:16:51;7.63;;;5.55;;
54993;SDS011;40891;47.242;8.648;2023-02-11T15:19:20;5.72;;;5.00;;
54993;SDS011;40891;47.242;8.648;2023-02-11T15:21:50;8.93;;;5.57;;
54993;SDS011;40891;47.242;8.648;2023-02-11T15:27:03;7.47;;;5.75;;
54993;SDS011;40891;47.242;8.648;2023-02-11T15:29:41;8.80;;;6.60;;
54993;SDS011;40891;47.242;8.648;2023-02-11T15:34:34;11.40;;;6.60;;
54993;SDS011;40891;47.242;8.648;2023-02-11T15:36:59;11.07;;;7.05;;
54993;SDS011;40891;47.242;8.648;2023-02-11T15:39:29;9.57;;;6.63;;
54993;SDS011;40891;47.242;8.648;2023-02-11T15:45:33;9.80;;;5.95;;
54993;SDS011;40891;47.242;8.648;2023-02-11T15:47:49;8.97;;;5.90;;
54993;SDS011;40891;47.242;8.648;2023-02-11T15:50:21;9.53;;;5.73;;
54993;SDS011;40891;47.242;8.648;2023-02-11T15:52:49;10.77;;;5.83;;
54993;SDS011;40891;47.242;8.648;2023-02-11T15:55:15;8.20;;;5.93;;
54993;SDS011;40891;47.242;8.648;2023-02-11T15:57:46;9.03;;;5.80;;
54993;SDS011;40891;47.242;8.648;2023-02-11T16:00:18;10.80;;;6.27;;
54993;SDS011;40891;47.242;8.648;2023-02-11T16:02:46;10.80;;;6.27;;
54993;SDS011;40891;47.242;8.648;2023-02-11T16:08:12;13.63;;;6.67;;
54993;SDS011;40891;47.242;8.648;2023-02-11T16:11:01;27.60;;;15.70;;
54993;SDS011;40891;47.242;8.648;2023-02-11T16:13:32;11.97;;;7.50;;
54993;SDS011;40891;47.242;8.648;2023-02-11T16:16:28;11.53;;;7.63;;
54993;SDS011;40891;47.242;8.648;2023-02-11T16:18:56;19.37;;;10.40;;
54993;SDS011;40891;47.242;8.648;2023-02-11T16:21:32;11.20;;;6.77;;
54993;SDS011;40891;47.242;8.648;2023-02-11T16:24:03;9.67;;;6.23;;
54993;SDS011;40891;47.242;8.648;2023-02-11T16:26:38;13.60;;;7.53;;
54993;SDS011;40891;47.242;8.648;2023-02-11T16:29:10;13.17;;;7.73;;
54993;SDS011;40891;47.242;8.648;2023-02-11T16:31:39;13.30;;;7.77;;
54993;SDS011;40891;47.242;8.648;2023-02-11T16:34:10;14.20;;;8.60;;
54993;SDS011;40891;47.242;8.648;2023-02-11T16:36:37;14.17;;;7.40;;
54993;SDS011;40891;47.242;8.648;2023-02-11T16:39:02;11.80;;;7.17;;
54993;SDS011;40891;47.242;8.648;2023-02-11T16:41:28;10.73;;;7.07;;
54993;SDS011;40891;47.242;8.648;2023-02-11T16:43:55;11.23;;;6.40;;
54993;SDS011;40891;47.242;8.648;2023-02-11T16:46:21;19.57;;;10.17;;
54993;SDS011;40891;47.242;8.648;2023-02-11T16:48:46;25.60;;;13.67;;
54993;SDS011;40891;47.242;8.648;2023-02-11T16:51:12;36.47;;;16.90;;
54993;SDS011;40891;47.242;8.648;2023-02-11T16:53:37;155.77;;;62.57;;
54993;SDS011;40891;47.242;8.648;2023-02-11T16:56:02;119.70;;;50.30;;
54993;SDS011;40891;47.242;8.648;2023-02-11T16:58:28;64.90;;;32.73;;
54993;SDS011;40891;47.242;8.648;2023-02-11T17:00:53;30.77;;;17.50;;
54993;SDS011;40891;47.242;8.648;2023-02-11T17:03:22;36.00;;;22.03;;
54993;SDS011;40891;47.242;8.648;2023-02-11T17:05:49;28.90;;;16.57;;